Time;durP1;ratioP1;P1;durP2;ratioP2;P2;SDS_P1;SDS_P2;PMS_P1;PMS_P2;Temp;Humidity;BMP_temperature;BMP_pressure;BME280_temperature;BME280_humidity;BME280_pressure;Samples;Min_cycle;Max_cycle;Signal;HPM_P1;HPM_P2
2022/11/06 00:01:10;;;;;;;;;9.50;6.75;;;;;11.24;69.41;101033.91;4996537;28;45511;-53
2022/11/06 00:03:36;;;;;;;;;5.60;5.60;;;;;11.00;69.29;100992.25;4996396;28;45381;-52
2022/11/06 00:08:53;;;;;;;;;7.80;7.20;;;;;11.24;69.11;101020.16;5008952;28;45422;-52
2022/11/06 00:11:18;;;;;;;;;8.75;8.00;;;;;11.20;69.11;101014.25;4995865;28;45401;-50
2022/11/06 00:13:44;;;;;;;;;10.25;8.50;;;;;11.15;69.44;100999.47;4994948;28;45281;-54
2022/11/06 00:16:10;;;;;;;;;7.50;5.75;;;;;11.15;69.19;101018.69;5012029;28;45703;-53
2022/11/06 00:18:36;;;;;;;;;8.80;6.00;;;;;11.17;69.29;101019.31;4995812;28;45514;-52
2022/11/06 00:21:15;;;;;;;;;10.75;7.00;;;;;11.18;69.01;101032.84;4996226;28;45509;-51
2022/11/06 00:23:42;;;;;;;;;8.00;8.00;;;;;11.14;69.55;101031.56;4996321;28;45408;-53
2022/11/06 00:26:08;;;;;;;;;6.40;6.40;;;;;11.13;69.45;101035.38;4996397;28;45679;-52
2022/11/06 00:28:34;;;;;;;;;5.80;4.60;;;;;11.19;69.48;101036.44;5011398;28;46286;-54
2022/11/06 00:31:01;;;;;;;;;10.00;6.00;;;;;11.19;69.34;101034.53;4996295;28;45465;-50
2022/11/06 00:33:27;;;;;;;;;5.20;5.20;;;;;11.20;68.63;101040.91;4995121;28;45412;-52
2022/11/06 00:35:52;;;;;;;;;5.75;5.50;;;;;11.12;69.03;101019.94;4996562;28;45326;-54
2022/11/06 00:38:18;;;;;;;;;6.50;5.50;;;;;11.23;69.32;101034.97;5009245;28;45382;-55
2022/11/06 00:40:44;;;;;;;;;7.50;5.50;;;;;11.17;68.71;101013.81;5015870;28;45450;-55
2022/11/06 00:43:09;;;;;;;;;5.75;5.75;;;;;10.95;68.89;100976.38;5031225;28;45385;-53
2022/11/06 00:45:34;;;;;;;;;6.00;4.75;;;;;11.21;69.34;101023.34;5016255;28;45666;-54
2022/11/06 00:48:00;;;;;;;;;8.75;4.75;;;;;11.18;69.08;101021.88;5015809;28;46119;-51
2022/11/06 00:50:26;;;;;;;;;5.50;4.50;;;;;11.20;68.73;101022.50;5031029;28;45386;-54
2022/11/06 00:52:52;;;;;;;;;6.25;6.25;;;;;11.22;69.25;101012.13;5015978;28;45244;-50
2022/11/06 00:55:17;;;;;;;;;6.80;5.60;;;;;11.23;68.80;101013.84;4992957;28;45781;-54
2022/11/06 00:57:43;;;;;;;;;8.00;7.25;;;;;11.20;68.97;100999.69;5026617;28;45397;-50
2022/11/06 01:00:10;;;;;;;;;9.50;6.50;;;;;11.19;68.69;100996.09;5012939;28;45229;-52
2022/11/06 01:02:35;;;;;;;;;5.60;5.60;;;;;11.13;69.13;100974.94;5015776;28;45390;-51
2022/11/06 01:05:01;;;;;;;;;7.00;6.25;;;;;11.10;69.05;100976.19;5015105;28;45345;-52
2022/11/06 01:07:26;;;;;;;;;8.00;6.25;;;;;11.20;69.20;101003.25;5030480;28;47236;-51
2022/11/06 01:09:52;;;;;;;;;10.50;6.75;;;;;11.24;68.79;100998.19;5014886;28;45370;-55
2022/11/06 01:12:17;;;;;;;;;10.00;6.00;;;;;11.23;68.82;100997.38;5015942;28;45314;-55
2022/11/06 01:14:43;;;;;;;;;9.50;6.00;;;;;11.25;69.11;100984.25;5014739;28;45824;-51
2022/11/06 01:17:09;;;;;;;;;7.00;5.25;;;;;10.98;68.91;100925.69;5015321;28;45835;-52
2022/11/06 01:19:34;;;;;;;;;8.25;5.00;;;;;11.27;69.04;100963.97;5030372;28;46002;-51
2022/11/06 01:22:00;;;;;;;;;5.75;4.75;;;;;11.19;69.02;100949.38;5015650;28;45346;-54
2022/11/06 01:24:26;;;;;;;;;8.75;5.50;;;;;11.31;68.67;100966.06;5030555;28;45298;-55
2022/11/06 01:26:52;;;;;;;;;5.60;4.60;;;;;11.27;68.57;100961.22;5030208;28;45485;-51
2022/11/06 01:29:18;;;;;;;;;9.00;5.25;;;;;11.36;68.52;100980.03;5015244;28;45333;-52
2022/11/06 01:31:44;;;;;;;;;7.00;4.00;;;;;11.26;69.11;100954.84;5014246;28;45388;-50
2022/11/06 01:34:10;;;;;;;;;6.20;5.00;;;;;11.35;68.45;100972.84;5014050;28;45462;-53
2022/11/06 01:36:35;;;;;;;;;5.00;4.00;;;;;11.40;68.68;100969.44;5013860;28;47782;-52
2022/11/06 01:39:08;;;;;;;;;9.00;5.25;;;;;11.39;68.76;100971.34;5010747;28;45734;-49
2022/11/06 01:41:39;;;;;;;;;5.00;5.00;;;;;11.41;68.78;100975.81;4994222;28;45239;-51
2022/11/06 01:44:06;;;;;;;;;4.40;4.20;;;;;11.44;68.35;100972.63;5010914;28;45474;-51
2022/11/06 01:46:33;;;;;;;;;5.00;4.60;;;;;11.42;68.49;100983.81;5010513;28;45495;-52
2022/11/06 01:49:10;;;;;;;;;4.80;4.80;;;;;11.35;68.02;100967.34;4993798;28;45304;-53
2022/11/06 01:51:41;;;;;;;;;7.60;6.40;;;;;11.42;68.13;100966.50;4993513;28;45586;-52
2022/11/06 01:54:07;;;;;;;;;5.20;5.20;;;;;11.22;68.08;100929.72;4994004;28;45365;-54
2022/11/06 01:56:32;;;;;;;;;6.00;6.00;;;;;11.43;68.39;100966.28;4993686;28;46099;-55
2022/11/06 01:58:58;;;;;;;;;5.00;4.00;;;;;11.45;68.20;100957.81;4994946;28;45386;-54
2022/11/06 02:01:23;;;;;;;;;8.25;4.75;;;;;11.45;68.16;100941.31;5010192;28;45360;-53
2022/11/06 02:04:06;;;;;;;;;4.75;3.75;;;;;11.45;67.94;100935.81;4994855;28;45283;-54
2022/11/06 02:06:32;;;;;;;;;5.60;5.60;;;;;11.44;67.73;100936.88;4993293;28;45505;-53
2022/11/06 02:08:57;;;;;;;;;5.25;4.25;;;;;11.31;68.36;100911.09;4993451;28;45358;-51
2022/11/06 02:11:23;;;;;;;;;4.00;4.00;;;;;11.42;68.40;100920.59;4993297;28;45445;-52
2022/11/06 02:14:07;;;;;;;;;10.25;7.75;;;;;11.35;68.07;100893.16;4994948;28;45880;-53
2022/11/06 02:16:55;;;;;;;;;4.60;4.60;;;;;11.44;68.20;100907.50;5010828;28;45362;-54
2022/11/06 02:19:53;;;;;;;;;4.80;4.80;;;;;11.41;68.01;100905.19;4997891;28;45410;-51
2022/11/06 02:22:27;;;;;;;;;4.00;4.00;;;;;11.32;68.51;100889.97;5013585;28;45458;-53
2022/11/06 02:25:07;;;;;;;;;8.20;6.60;;;;;11.33;68.05;100875.19;4998347;28;45479;-55
2022/11/06 02:27:33;;;;;;;;;4.00;3.00;;;;;11.32;68.87;100866.06;5013223;28;46538;-53
2022/11/06 02:30:06;;;;;;;;;5.00;5.00;;;;;11.31;68.32;100852.56;4996394;28;45433;-52
2022/11/06 02:32:39;;;;;;;;;4.60;4.00;;;;;11.26;68.64;100850.44;5013400;28;45363;-53
2022/11/06 02:35:29;;;;;;;;;10.00;5.00;;;;;11.28;68.40;100863.97;4980074;28;45862;-52
2022/11/06 02:38:03;;;;;;;;;5.60;4.80;;;;;11.22;68.84;100869.25;5003043;28;45819;-51
2022/11/06 02:40:32;;;;;;;;;7.20;5.00;;;;;11.23;68.64;100889.34;5016193;28;45375;-54
2022/11/06 02:42:58;;;;;;;;;4.80;3.60;;;;;10.89;68.31;100806.13;5016365;28;45472;-52
2022/11/06 02:45:23;;;;;;;;;7.60;6.00;;;;;11.23;68.03;100868.22;5033186;28;45480;-51
2022/11/06 02:47:49;;;;;;;;;6.00;6.00;;;;;11.26;68.42;100872.44;5017266;28;45437;-52
2022/11/06 02:50:19;;;;;;;;;5.00;4.00;;;;;11.21;68.47;100884.06;5032784;28;45933;-50
2022/11/06 02:52:51;;;;;;;;;5.40;3.60;;;;;11.31;68.39;100877.31;4999938;28;45288;-54
2022/11/06 02:55:28;;;;;;;;;5.40;4.60;;;;;11.32;68.17;100868.81;5017627;28;45318;-52
2022/11/06 02:57:56;;;;;;;;;5.80;5.40;;;;;11.11;67.96;100843.28;5016109;28;47139;-51
2022/11/06 03:00:23;;;;;;;;;7.60;4.60;;;;;11.04;67.87;100839.72;5015939;28;45520;-53
2022/11/06 03:02:53;;;;;;;;;5.20;5.20;;;;;11.35;67.86;100878.56;5017259;28;45281;-53
2022/11/06 03:05:28;;;;;;;;;3.40;3.20;;;;;11.35;68.12;100873.91;5017652;28;45417;-52
2022/11/06 03:07:58;;;;;;;;;5.80;5.00;;;;;11.38;67.63;100869.91;5015938;28;45974;-52
2022/11/06 03:10:25;;;;;;;;;7.20;5.00;;;;;11.39;67.88;100864.16;5017031;28;45311;-52
2022/11/06 03:12:54;;;;;;;;;6.60;5.00;;;;;11.42;67.77;100865.63;5032729;28;45397;-53
2022/11/06 03:15:26;;;;;;;;;4.80;4.80;;;;;11.39;67.57;100858.66;5017202;28;45332;-49
2022/11/06 03:18:16;;;;;;;;;4.00;4.00;;;;;11.31;67.93;100836.91;5032297;28;46282;-49
2022/11/06 03:20:56;;;;;;;;;5.20;5.20;;;;;11.34;68.13;100827.41;5016732;28;45325;-50
2022/11/06 03:23:26;;;;;;;;;3.20;3.00;;;;;11.36;68.03;100836.25;5017204;28;45346;-51
2022/11/06 03:26:17;;;;;;;;;4.00;4.00;;;;;11.32;67.95;100832.28;5015664;28;45580;-50
2022/11/06 03:28:52;;;;;;;;;3.40;3.40;;;;;11.30;67.71;100843.47;5015743;28;45534;-52
2022/11/06 03:31:19;;;;;;;;;4.80;4.20;;;;;11.25;67.83;100830.38;5015254;28;45568;-54
2022/11/06 03:33:53;;;;;;;;;4.80;4.00;;;;;11.22;67.65;100828.06;5016009;28;45324;-53
2022/11/06 03:36:23;;;;;;;;;5.80;5.00;;;;;11.21;68.31;100826.38;4997077;28;45337;-50
2022/11/06 03:38:54;;;;;;;;;4.00;4.00;;;;;11.18;68.30;100817.72;5006883;28;46169;-53
2022/11/06 03:41:27;;;;;;;;;8.40;3.80;;;;;11.00;68.27;100790.91;5013734;28;45540;-54
2022/11/06 03:43:54;;;;;;;;;3.80;3.60;;;;;11.20;68.01;100826.59;5017189;28;45807;-52
2022/11/06 03:46:23;;;;;;;;;5.00;5.00;;;;;11.15;68.20;100818.16;5031807;28;45421;-51
2022/11/06 03:49:00;;;;;;;;;4.00;4.00;;;;;11.13;67.87;100832.09;5014979;28;47113;-50
2022/11/06 03:51:50;;;;;;;;;4.00;4.00;;;;;11.13;67.79;100829.34;5016257;28;45389;-52
2022/11/06 03:54:20;;;;;;;;;5.80;4.40;;;;;10.80;68.12;100772.56;5016619;28;45377;-52
2022/11/06 03:56:48;;;;;;;;;6.20;4.60;;;;;11.10;67.65;100807.81;5015026;28;45541;-51
2022/11/06 03:59:13;;;;;;;;;3.80;3.60;;;;;11.01;68.03;100785.22;5016154;28;46384;-51
2022/11/06 04:01:43;;;;;;;;;8.75;4.75;;;;;11.07;68.07;100787.09;5031274;28;45502;-51
2022/11/06 04:04:40;;;;;;;;;6.80;3.60;;;;;11.05;68.35;100785.63;5031149;28;45517;-50
2022/11/06 04:07:18;;;;;;;;;2.40;2.20;;;;;11.04;68.51;100789.44;5001707;28;45740;-51
2022/11/06 04:13:56;;;;;;;;;7.80;7.80;;;;;10.79;68.15;100763.47;5015003;28;45476;-51
2022/11/06 04:15:30;;;;;;;;;5.00;5.00;;;;;11.00;68.20;100794.53;5014654;28;45381;-50
2022/11/06 04:17:55;;;;;;;;;7.00;4.00;;;;;10.97;68.10;100781.19;5016472;28;45345;-52
2022/11/06 04:23:12;;;;;;;;;4.00;4.00;;;;;10.95;68.67;100770.41;5028872;28;45413;-51
2022/11/06 04:29:12;;;;;;;;;3.60;2.60;;;;;10.86;68.63;100766.22;5029486;28;45840;-53
2022/11/06 04:31:56;;;;;;;;;5.40;3.20;;;;;10.90;68.79;100763.88;5030913;28;46166;-53
2022/11/06 04:34:27;;;;;;;;;5.80;5.00;;;;;10.87;68.91;100778.06;5016004;28;45299;-53
2022/11/06 04:37:24;;;;;;;;;3.40;3.40;;;;;10.90;68.19;100777.63;5014489;28;45310;-49
2022/11/06 04:40:01;;;;;;;;;6.40;5.00;;;;;10.83;68.19;100756.50;4971754;28;47503;-51
2022/11/06 04:42:41;;;;;;;;;4.00;4.00;;;;;10.92;68.31;100768.13;5017938;28;46318;-51
2022/11/06 04:45:11;;;;;;;;;4.80;3.80;;;;;10.95;68.88;100775.91;5014729;28;45262;-53
2022/11/06 04:47:36;;;;;;;;;1.80;1.80;;;;;10.98;68.55;100771.91;4998183;28;45458;-50
2022/11/06 04:50:02;;;;;;;;;3.25;3.00;;;;;10.82;68.30;100752.06;5031229;28;45429;-54
2022/11/06 04:52:28;;;;;;;;;5.00;3.25;;;;;10.98;68.56;100771.91;5014089;28;45475;-49
2022/11/06 04:54:54;;;;;;;;;4.75;4.75;;;;;10.90;68.02;100748.28;5015805;28;45512;-51
2022/11/06 04:57:21;;;;;;;;;8.20;5.60;;;;;10.67;68.02;100713.03;5030993;28;45443;-54
2022/11/06 04:59:46;;;;;;;;;4.00;4.00;;;;;10.97;67.74;100757.34;5014723;28;45775;-52
2022/11/06 05:02:12;;;;;;;;;3.50;3.50;;;;;10.72;68.17;100724.19;5030812;28;46426;-52
2022/11/06 05:04:37;;;;;;;;;6.75;4.50;;;;;10.87;67.98;100745.94;5030688;28;45735;-54
2022/11/06 05:07:03;;;;;;;;;5.25;4.00;;;;;10.92;68.25;100759.88;5014289;28;45386;-49
2022/11/06 05:09:28;;;;;;;;;4.50;4.50;;;;;10.93;67.90;100744.22;5015809;28;45367;-50
2022/11/06 05:11:54;;;;;;;;;3.00;3.00;;;;;10.93;68.12;100742.34;5015253;28;46302;-50
2022/11/06 05:14:19;;;;;;;;;8.00;4.50;;;;;10.96;67.82;100743.81;5015236;28;45211;-51
2022/11/06 05:16:45;;;;;;;;;6.25;3.25;;;;;10.61;67.54;100687.28;5015168;28;45383;-51
2022/11/06 05:19:10;;;;;;;;;5.50;5.00;;;;;10.68;67.29;100706.50;5030860;28;45287;-51
2022/11/06 05:24:20;;;;;;;;;7.40;5.00;;;;;10.88;67.27;100735.81;5028122;28;45397;-52
2022/11/06 05:26:45;;;;;;;;;4.75;4.00;;;;;10.81;67.64;100731.19;5014962;28;45381;-51
2022/11/06 05:29:11;;;;;;;;;4.00;3.25;;;;;10.75;68.29;100706.47;5014164;28;45353;-51
2022/11/06 05:31:37;;;;;;;;;4.50;3.50;;;;;10.33;67.92;100647.19;5014848;28;46294;-51
2022/11/06 05:34:02;;;;;;;;;8.50;4.50;;;;;10.86;67.32;100716.81;5015219;28;45483;-50
2022/11/06 05:36:28;;;;;;;;;6.75;4.75;;;;;10.85;67.45;100710.44;5015102;28;45424;-53
2022/11/06 05:38:53;;;;;;;;;4.00;4.00;;;;;10.82;67.39;100707.28;5006269;28;45487;-52
2022/11/06 05:41:18;;;;;;;;;5.00;3.25;;;;;10.76;68.21;100699.91;4995026;28;45602;-53
2022/11/06 05:43:44;;;;;;;;;5.75;3.00;;;;;10.77;68.24;100707.94;4995276;28;45514;-55
2022/11/06 05:46:09;;;;;;;;;5.00;4.00;;;;;10.53;67.78;100660.06;4995475;28;45333;-50
2022/11/06 05:48:35;;;;;;;;;5.25;3.50;;;;;10.80;67.54;100695.69;4995525;28;45398;-55
2022/11/06 05:51:02;;;;;;;;;4.75;4.50;;;;;10.80;67.52;100695.69;4994316;28;46455;-56
2022/11/06 05:53:29;;;;;;;;;4.80;4.80;;;;;10.77;67.98;100707.13;4994879;28;45315;-54
2022/11/06 05:55:54;;;;;;;;;4.20;4.00;;;;;10.70;67.99;100707.97;4993982;28;45494;-52
2022/11/06 05:58:20;;;;;;;;;9.00;5.00;;;;;10.76;67.65;100705.41;4995177;28;45354;-54
2022/11/06 06:00:45;;;;;;;;;4.00;4.00;;;;;10.77;68.14;100705.19;4994883;28;45820;-52
2022/11/06 06:03:11;;;;;;;;;8.75;5.25;;;;;10.80;67.09;100701.19;5010096;28;45372;-53
2022/11/06 06:05:36;;;;;;;;;5.75;4.75;;;;;10.84;67.47;100710.69;4994854;28;45364;-54
2022/11/06 06:08:02;;;;;;;;;4.00;4.00;;;;;10.81;67.49;100703.72;4994974;28;45384;-55
2022/11/06 06:10:28;;;;;;;;;5.00;4.40;;;;;10.82;67.59;100705.41;4994653;28;45824;-51
2022/11/06 06:12:53;;;;;;;;;6.00;6.00;;;;;10.75;67.17;100698.22;4994625;28;45392;-53
2022/11/06 06:15:19;;;;;;;;;5.50;5.50;;;;;10.81;67.07;100702.88;4994692;28;45425;-51
2022/11/06 06:17:45;;;;;;;;;5.00;3.75;;;;;10.78;67.65;100698.63;4994897;28;45393;-52
2022/11/06 06:20:11;;;;;;;;;4.00;3.20;;;;;10.78;67.06;100678.59;4993369;28;47101;-57
2022/11/06 06:22:36;;;;;;;;;9.25;4.75;;;;;10.76;67.51;100684.28;4994382;28;45370;-53
2022/11/06 06:25:03;;;;;;;;;4.75;3.75;;;;;10.76;67.67;100683.44;4994839;28;45349;-53
2022/11/06 06:27:29;;;;;;;;;3.40;3.40;;;;;10.74;67.68;100678.19;5009959;28;45395;-51
2022/11/06 06:29:55;;;;;;;;;4.60;4.40;;;;;10.67;67.38;100661.72;4966223;28;45636;-54
2022/11/06 06:32:21;;;;;;;;;4.00;4.00;;;;;10.75;67.33;100665.28;4984523;28;45360;-52
2022/11/06 06:34:46;;;;;;;;;5.75;3.75;;;;;10.74;67.01;100660.84;4974903;28;45511;-51
2022/11/06 06:37:11;;;;;;;;;5.50;5.00;;;;;10.73;67.68;100648.19;4974881;28;45268;-54
2022/11/06 06:39:37;;;;;;;;;6.00;4.75;;;;;10.70;67.53;100646.72;5001885;28;45759;-55
2022/11/06 06:42:02;;;;;;;;;7.50;5.75;;;;;10.68;67.22;100649.69;5029299;28;45347;-54
2022/11/06 06:44:28;;;;;;;;;6.25;5.25;;;;;10.69;67.95;100647.78;5012812;28;45394;-55
2022/11/06 06:46:53;;;;;;;;;10.25;5.75;;;;;10.36;67.71;100594.63;5014456;28;45552;-51
2022/11/06 06:49:19;;;;;;;;;4.50;4.50;;;;;10.58;67.34;100639.13;5029105;28;45966;-52
2022/11/06 06:51:47;;;;;;;;;6.25;4.75;;;;;10.57;67.42;100633.88;5013749;28;45794;-50
2022/11/06 06:54:12;;;;;;;;;9.60;6.20;;;;;10.52;67.79;100622.72;5029525;28;45352;-53
2022/11/06 06:56:38;;;;;;;;;5.75;5.75;;;;;10.57;67.39;100631.16;5014098;28;45336;-51
2022/11/06 06:59:03;;;;;;;;;5.00;5.00;;;;;10.60;68.07;100624.34;5012472;28;45583;-54
2022/11/06 07:01:29;;;;;;;;;6.00;5.50;;;;;10.58;67.31;100610.88;5012482;28;45307;-52
2022/11/06 07:03:55;;;;;;;;;3.25;3.25;;;;;10.57;67.76;100607.28;5015069;28;45306;-54
2022/11/06 07:06:20;;;;;;;;;7.00;4.25;;;;;10.58;67.26;100606.22;5017473;28;45481;-53
2022/11/06 07:08:46;;;;;;;;;6.25;6.25;;;;;10.57;67.67;100607.28;5016719;28;46661;-53
2022/11/06 07:11:11;;;;;;;;;5.00;4.00;;;;;10.60;66.93;100614.22;5017257;28;45526;-50
2022/11/06 07:13:37;;;;;;;;;4.00;3.75;;;;;10.59;67.56;100618.03;5015795;28;45359;-51
2022/11/06 07:16:07;;;;;;;;;3.75;2.50;;;;;10.33;67.73;100581.34;5017328;28;45644;-51
2022/11/06 07:18:33;;;;;;;;;4.40;3.80;;;;;10.58;66.78;100616.34;5032133;28;45404;-49
2022/11/06 07:20:59;;;;;;;;;6.60;4.80;;;;;10.55;67.14;100600.31;5017160;28;45333;-51
2022/11/06 07:23:24;;;;;;;;;3.00;3.00;;;;;10.53;67.02;100596.94;5017005;28;45260;-52
2022/11/06 07:25:53;;;;;;;;;4.75;4.75;;;;;10.59;66.69;100609.81;5017211;28;45239;-53
2022/11/06 07:28:19;;;;;;;;;6.80;5.80;;;;;10.39;67.10;100579.63;5016732;28;46214;-55
2022/11/06 07:30:44;;;;;;;;;4.00;3.00;;;;;10.65;66.92;100621.81;4998680;28;45884;-51
2022/11/06 07:33:10;;;;;;;;;5.00;3.50;;;;;10.58;67.17;100599.91;4992738;28;45488;-51
2022/11/06 07:35:35;;;;;;;;;6.25;4.50;;;;;10.64;66.65;100607.25;4996334;28;45707;-51
2022/11/06 07:38:05;;;;;;;;;6.00;2.50;;;;;10.65;66.38;100588.88;4995638;28;47179;-49
2022/11/06 07:40:31;;;;;;;;;8.80;2.80;;;;;10.67;67.23;100587.59;5016588;28;45404;-49
2022/11/06 07:43:05;;;;;;;;;5.20;3.40;;;;;10.62;66.40;100579.16;5015097;28;45994;-54
2022/11/06 07:45:30;;;;;;;;;6.80;6.40;;;;;10.47;67.19;100564.88;5017268;28;45580;-49
2022/11/06 07:47:56;;;;;;;;;4.00;4.00;;;;;10.27;66.98;100546.53;4998371;28;47356;-53
2022/11/06 07:50:22;;;;;;;;;3.50;3.50;;;;;10.59;67.16;100593.34;5016654;28;45380;-49
2022/11/06 07:52:47;;;;;;;;;4.00;4.00;;;;;10.62;66.64;100595.63;5031747;28;45402;-54
2022/11/06 07:55:13;;;;;;;;;8.00;4.00;;;;;10.65;67.14;100597.13;5015692;28;45328;-54
2022/11/06 07:57:38;;;;;;;;;8.25;4.00;;;;;10.61;66.55;100593.13;5031180;28;47320;-50
2022/11/06 08:00:05;;;;;;;;;3.75;3.25;;;;;10.61;66.88;100595.88;5016121;28;45422;-51
2022/11/06 08:02:30;;;;;;;;;14.40;12.80;;;;;10.66;66.75;100594.16;5016442;28;45549;-54
2022/11/06 08:04:56;;;;;;;;;9.00;4.50;;;;;10.68;66.90;100586.53;5031680;28;45373;-50
2022/11/06 08:07:21;;;;;;;;;4.00;4.00;;;;;10.69;67.12;100596.47;5016140;28;46052;-54
2022/11/06 08:09:47;;;;;;;;;4.00;2.00;;;;;10.71;66.60;100593.50;5016105;28;45318;-51
2022/11/06 08:12:13;;;;;;;;;24.50;20.50;;;;;10.74;66.90;100586.75;5031326;28;45395;-53
2022/11/06 08:14:39;;;;;;;;;4.60;3.00;;;;;10.74;66.74;100587.59;5015037;28;45599;-50
2022/11/06 08:17:04;;;;;;;;;4.20;4.00;;;;;10.47;65.91;100545.66;5011231;28;46144;-50
2022/11/06 08:19:30;;;;;;;;;3.75;3.75;;;;;10.73;66.39;100579.56;4996321;28;45357;-49
2022/11/06 08:21:55;;;;;;;;;9.00;5.00;;;;;10.74;66.31;100584.00;4995140;28;45513;-51
2022/11/06 08:24:21;;;;;;;;;3.00;3.00;;;;;10.22;66.89;100496.97;4996503;28;45813;-52
2022/11/06 08:26:46;;;;;;;;;4.25;3.50;;;;;10.73;66.64;100572.16;4996236;28;45423;-53
2022/11/06 08:29:12;;;;;;;;;6.75;4.25;;;;;10.52;66.48;100526.66;4996096;28;45323;-55
2022/11/06 08:31:38;;;;;;;;;3.25;3.25;;;;;10.76;66.67;100568.13;4996320;28;45407;-50
2022/11/06 08:34:04;;;;;;;;;7.50;4.00;;;;;10.75;66.96;100560.97;4996168;28;45502;-52
2022/11/06 08:36:29;;;;;;;;;7.40;3.80;;;;;10.74;68.02;100551.06;4994675;28;46505;-52
2022/11/06 08:38:55;;;;;;;;;4.75;4.00;;;;;10.69;68.58;100562.69;5000823;28;45408;-52
2022/11/06 08:41:20;;;;;;;;;4.25;3.00;;;;;9.97;67.88;100440.94;5015923;28;45497;-50
2022/11/06 08:43:50;;;;;;;;;4.50;3.50;;;;;10.64;68.86;100571.59;5015869;28;45539;-51
2022/11/06 08:46:16;;;;;;;;;2.60;2.60;;;;;10.73;68.77;100571.34;5015742;28;46334;-53
2022/11/06 08:48:41;;;;;;;;;3.00;3.00;;;;;10.73;69.25;100569.41;5015725;28;45432;-54
2022/11/06 08:51:07;;;;;;;;;3.00;3.00;;;;;10.74;69.01;100564.78;5016030;28;45959;-51
2022/11/06 08:53:32;;;;;;;;;4.50;4.50;;;;;10.69;69.14;100570.94;5015699;28;45405;-51
2022/11/06 08:55:58;;;;;;;;;6.00;4.00;;;;;10.72;69.15;100575.97;5015769;28;46015;-52
2022/11/06 08:58:23;;;;;;;;;7.50;6.00;;;;;10.74;70.03;100565.63;5015511;28;45501;-53
2022/11/06 09:00:49;;;;;;;;;5.75;4.50;;;;;10.74;70.00;100570.28;5015795;28;45507;-53
2022/11/06 09:03:16;;;;;;;;;4.25;3.75;;;;;10.53;69.27;100542.91;5016101;28;45928;-53
2022/11/06 09:05:42;;;;;;;;;8.00;5.20;;;;;10.43;69.93;100526.06;5011726;28;46712;-53
2022/11/06 09:08:08;;;;;;;;;7.50;4.75;;;;;10.65;69.96;100561.44;4994092;28;45409;-52
2022/11/06 09:10:33;;;;;;;;;4.50;4.00;;;;;10.64;70.44;100551.50;4995581;28;45385;-53
2022/11/06 09:12:59;;;;;;;;;6.75;5.00;;;;;10.61;70.55;100544.56;4994559;28;45630;-53
2022/11/06 09:15:25;;;;;;;;;4.00;4.00;;;;;10.60;70.90;100547.50;4970694;28;45750;-51
2022/11/06 09:17:50;;;;;;;;;6.20;5.00;;;;;10.51;70.56;100541.44;4983514;28;45401;-49
2022/11/06 09:20:17;;;;;;;;;3.00;3.00;;;;;10.62;71.00;100543.50;4994617;28;45941;-55
2022/11/06 09:22:44;;;;;;;;;5.40;5.40;;;;;10.62;70.50;100540.75;4993216;28;45643;-50
2022/11/06 09:25:09;;;;;;;;;3.60;3.60;;;;;10.58;71.15;100518.38;4994909;28;46519;-50
2022/11/06 09:27:47;;;;;;;;;3.50;3.50;;;;;10.50;71.44;100493.09;4994378;28;45401;-55
2022/11/06 09:30:14;;;;;;;;;5.40;5.40;;;;;10.61;71.63;100486.91;4978257;28;45516;-54
2022/11/06 09:33:00;;;;;;;;;6.20;6.20;;;;;10.56;71.72;100492.22;4994042;28;45315;-54
2022/11/06 09:35:26;;;;;;;;;5.80;5.80;;;;;10.51;72.06;100472.84;4994888;28;45679;-54
2022/11/06 09:37:52;;;;;;;;;6.80;6.80;;;;;10.53;72.71;100482.53;4993701;28;45524;-53
2022/11/06 09:40:35;;;;;;;;;4.00;4.00;;;;;10.48;72.66;100481.50;5008489;28;45468;-53
2022/11/06 09:43:31;;;;;;;;;5.80;4.00;;;;;10.59;72.60;100491.78;4984914;28;45564;-54
2022/11/06 09:46:06;;;;;;;;;6.40;6.40;;;;;10.56;73.37;100473.00;5003999;28;46302;-52
2022/11/06 09:48:37;;;;;;;;;7.00;5.00;;;;;10.61;73.15;100477.88;5010582;28;45559;-52
2022/11/06 09:51:26;;;;;;;;;3.80;3.80;;;;;10.69;72.37;100489.41;5010796;28;45376;-52
2022/11/06 09:54:02;;;;;;;;;5.60;4.00;;;;;10.76;72.90;100492.13;5027573;28;45885;-53
2022/11/06 09:56:29;;;;;;;;;4.80;4.80;;;;;10.08;72.77;100373.59;5010652;28;46411;-52
2022/11/06 09:58:55;;;;;;;;;7.00;5.00;;;;;10.81;72.71;100483.22;5010506;28;45576;-52
2022/11/06 10:01:25;;;;;;;;;4.75;3.25;;;;;10.75;72.07;100478.63;5012082;28;45460;-53
2022/11/06 10:03:58;;;;;;;;;9.60;8.00;;;;;10.69;72.83;100461.97;5026912;28;45634;-49
2022/11/06 10:06:24;;;;;;;;;8.40;7.60;;;;;10.69;73.15;100464.69;5010324;28;47357;-52
2022/11/06 10:08:50;;;;;;;;;7.75;7.00;;;;;10.70;73.00;100465.56;5011682;28;45382;-54
2022/11/06 10:11:16;;;;;;;;;10.20;8.00;;;;;10.70;73.28;100468.31;5011897;28;45983;-50
2022/11/06 10:14:01;;;;;;;;;8.00;8.00;;;;;10.75;73.64;100473.13;5011753;28;45495;-49
2022/11/06 10:16:48;;;;;;;;;8.00;6.60;;;;;10.74;73.30;100457.72;4992246;28;46778;-54
2022/11/06 10:19:38;;;;;;;;;10.60;8.00;;;;;10.27;73.44;100385.56;5011503;28;45520;-56
2022/11/06 10:22:07;;;;;;;;;9.40;8.40;;;;;10.76;73.50;100458.34;5011527;28;45429;-53
2022/11/06 10:24:54;;;;;;;;;11.80;9.20;;;;;10.70;73.46;100466.41;5011839;28;45404;-48
2022/11/06 10:27:27;;;;;;;;;9.60;7.20;;;;;10.56;73.29;100449.16;5011771;28;45687;-52
2022/11/06 10:30:05;;;;;;;;;11.00;6.80;;;;;10.02;73.72;100349.78;5026721;28;45800;-48
2022/11/06 10:32:38;;;;;;;;;7.00;7.00;;;;;10.39;73.66;100415.00;5012017;28;45885;-49
2022/11/06 10:35:24;;;;;;;;;9.80;8.00;;;;;10.60;73.16;100457.78;5010263;28;45461;-52
2022/11/06 10:37:55;;;;;;;;;10.60;9.40;;;;;10.59;73.91;100464.34;5027643;28;46208;-54
2022/11/06 10:40:25;;;;;;;;;8.40;8.40;;;;;10.65;73.21;100473.59;5002323;28;45385;-52
2022/11/06 10:43:22;;;;;;;;;9.20;7.20;;;;;10.67;73.68;100477.81;4976209;28;45718;-49
2022/11/06 10:46:15;;;;;;;;;9.60;7.80;;;;;10.62;73.63;100466.66;4978513;28;45752;-51
2022/11/06 10:48:47;;;;;;;;;12.20;10.00;;;;;10.63;73.55;100468.34;4991899;28;46228;-51
2022/11/06 10:51:20;;;;;;;;;5.00;5.00;;;;;10.36;73.62;100426.44;4994321;28;45464;-51
2022/11/06 10:54:12;;;;;;;;;10.20;8.80;;;;;10.57;74.01;100444.53;4995514;28;45434;-57
2022/11/06 10:56:59;;;;;;;;;10.00;8.20;;;;;10.57;73.51;100444.53;4994087;28;45330;-52
2022/11/06 10:59:24;;;;;;;;;9.80;8.00;;;;;10.39;73.87;100413.13;4994853;28;46320;-52
2022/11/06 11:01:50;;;;;;;;;8.25;8.25;;;;;10.48;74.49;100435.69;4993626;28;45455;-54
2022/11/06 11:04:16;;;;;;;;;9.00;6.80;;;;;10.52;74.23;100433.38;4994063;28;45445;-51
2022/11/06 11:06:42;;;;;;;;;11.75;8.50;;;;;10.50;74.48;100432.72;4961237;28;45556;-53
2022/11/06 11:09:30;;;;;;;;;8.50;7.00;;;;;10.53;75.05;100413.09;4995120;28;45561;-55
2022/11/06 11:11:59;;;;;;;;;9.00;8.00;;;;;10.56;74.74;100421.72;4993729;28;45875;-54
2022/11/06 11:14:26;;;;;;;;;11.80;10.60;;;;;10.23;74.67;100388.94;4969471;28;45552;-54
2022/11/06 11:16:52;;;;;;;;;8.80;8.80;;;;;10.51;74.56;100420.72;4977444;28;45467;-54
2022/11/06 11:19:27;;;;;;;;;11.75;9.25;;;;;10.58;75.09;100424.25;4993351;28;45664;-49
2022/11/06 11:21:55;;;;;;;;;10.40;9.00;;;;;10.60;75.50;100419.38;5004649;28;45476;-51
2022/11/06 11:24:20;;;;;;;;;9.40;9.00;;;;;10.30;74.89;100365.91;5012851;28;45504;-53
2022/11/06 11:26:47;;;;;;;;;10.25;10.25;;;;;10.56;74.77;100418.13;5013664;28;45568;-53
2022/11/06 11:29:22;;;;;;;;;11.60;10.60;;;;;10.35;75.26;100370.72;5014347;28;46318;-56
2022/11/06 11:31:55;;;;;;;;;9.40;9.40;;;;;10.59;74.72;100401.22;5013079;28;45423;-49
2022/11/06 11:34:25;;;;;;;;;8.80;8.80;;;;;10.60;74.89;100383.69;5014567;28;45512;-53
2022/11/06 11:37:02;;;;;;;;;10.40;9.20;;;;;10.25;75.48;100330.06;5013906;28;45398;-50
2022/11/06 11:39:31;;;;;;;;;9.40;8.00;;;;;10.13;75.00;100294.25;4994974;28;45658;-55
2022/11/06 11:42:14;;;;;;;;;10.60;9.80;;;;;10.50;76.06;100350.41;4973724;28;45660;-52
2022/11/06 11:44:40;;;;;;;;;10.80;9.80;;;;;9.89;75.96;100252.03;4994419;28;45502;-58
2022/11/06 11:47:18;;;;;;;;;13.25;10.00;;;;;10.52;75.17;100342.81;4995012;28;45429;-53
2022/11/06 11:49:44;;;;;;;;;14.40;11.20;;;;;10.52;75.22;100324.41;4992394;28;46251;-53